sensor_id;sensor_type;location;lat;lon;timestamp;pressure;altitude;pressure_sealevel;temperature
73937;BMP180;59249;59.736;30.568;2023-09-19T00:00:58;101295.00;;;7.40
73937;BMP180;59249;59.736;30.568;2023-09-19T00:03:27;101289.00;;;7.30
73937;BMP180;59249;59.736;30.568;2023-09-19T00:05:58;101287.00;;;7.30
73937;BMP180;59249;59.736;30.568;2023-09-19T00:08:27;101281.00;;;7.30
73937;BMP180;59249;59.736;30.568;2023-09-19T00:10:57;101289.00;;;7.30
73937;BMP180;59249;59.736;30.568;2023-09-19T00:13:31;101277.00;;;7.20
73937;BMP180;59249;59.736;30.568;2023-09-19T00:16:00;101282.00;;;7.20
73937;BMP180;59249;59.736;30.568;2023-09-19T00:18:30;101283.00;;;7.20
73937;BMP180;59249;59.736;30.568;2023-09-19T00:21:02;101276.00;;;7.10
73937;BMP180;59249;59.736;30.568;2023-09-19T00:23:31;101282.00;;;7.10
73937;BMP180;59249;59.736;30.568;2023-09-19T00:26:02;101271.00;;;7.10
73937;BMP180;59249;59.736;30.568;2023-09-19T00:28:31;101273.00;;;7.10
73937;BMP180;59249;59.736;30.568;2023-09-19T00:31:00;101268.00;;;7.10
73937;BMP180;59249;59.736;30.568;2023-09-19T00:33:31;101266.00;;;7.00
73937;BMP180;59249;59.736;30.568;2023-09-19T00:36:01;101278.00;;;7.00
73937;BMP180;59249;59.736;30.568;2023-09-19T00:38:32;101272.00;;;7.00
73937;BMP180;59249;59.736;30.568;2023-09-19T00:41:02;101278.00;;;7.00
73937;BMP180;59249;59.736;30.568;2023-09-19T00:43:31;101269.00;;;7.00
73937;BMP180;59249;59.736;30.568;2023-09-19T00:46:02;101275.00;;;6.90
73937;BMP180;59249;59.736;30.568;2023-09-19T00:48:38;101262.00;;;6.90
73937;BMP180;59249;59.736;30.568;2023-09-19T00:51:11;101260.00;;;6.90
73937;BMP180;59249;59.736;30.568;2023-09-19T00:53:42;101266.00;;;6.90
73937;BMP180;59249;59.736;30.568;2023-09-19T00:56:15;101262.00;;;6.80
73937;BMP180;59249;59.736;30.568;2023-09-19T00:58:47;101260.00;;;6.80
73937;BMP180;59249;59.736;30.568;2023-09-19T01:01:16;101254.00;;;6.90
73937;BMP180;59249;59.736;30.568;2023-09-19T01:03:46;101246.00;;;6.90
73937;BMP180;59249;59.736;30.568;2023-09-19T01:06:16;101237.00;;;6.90
73937;BMP180;59249;59.736;30.568;2023-09-19T01:08:45;101230.00;;;6.90
73937;BMP180;59249;59.736;30.568;2023-09-19T01:11:21;101228.00;;;6.90
73937;BMP180;59249;59.736;30.568;2023-09-19T01:13:58;101228.00;;;6.90
73937;BMP180;59249;59.736;30.568;2023-09-19T01:16:39;101222.00;;;6.90
73937;BMP180;59249;59.736;30.568;2023-09-19T01:19:33;101214.00;;;6.90
73937;BMP180;59249;59.736;30.568;2023-09-19T01:22:26;101210.00;;;6.90
73937;BMP180;59249;59.736;30.568;2023-09-19T01:28:25;101199.00;;;7.10
73937;BMP180;59249;59.736;30.568;2023-09-19T01:31:09;101203.00;;;7.20
73937;BMP180;59249;59.736;30.568;2023-09-19T01:33:58;101195.00;;;7.20
73937;BMP180;59249;59.736;30.568;2023-09-19T01:36:34;101188.00;;;7.30
73937;BMP180;59249;59.736;30.568;2023-09-19T01:39:07;101183.00;;;7.30
73937;BMP180;59249;59.736;30.568;2023-09-19T01:41:58;101174.00;;;7.40
73937;BMP180;59249;59.736;30.568;2023-09-19T01:44:47;101172.00;;;7.50
73937;BMP180;59249;59.736;30.568;2023-09-19T01:47:31;101168.00;;;7.50
73937;BMP180;59249;59.736;30.568;2023-09-19T01:50:10;101156.00;;;7.50
73937;BMP180;59249;59.736;30.568;2023-09-19T01:52:49;101159.00;;;7.50
73937;BMP180;59249;59.736;30.568;2023-09-19T01:55:28;101142.00;;;7.40
73937;BMP180;59249;59.736;30.568;2023-09-19T01:58:06;101136.00;;;7.40
73937;BMP180;59249;59.736;30.568;2023-09-19T02:00:38;101131.00;;;7.40
73937;BMP180;59249;59.736;30.568;2023-09-19T02:03:11;101119.00;;;7.40
73937;BMP180;59249;59.736;30.568;2023-09-19T02:05:48;101117.00;;;7.40
73937;BMP180;59249;59.736;30.568;2023-09-19T02:08:19;101120.00;;;7.40
73937;BMP180;59249;59.736;30.568;2023-09-19T02:10:51;101114.00;;;7.40
73937;BMP180;59249;59.736;30.568;2023-09-19T02:13:22;101100.00;;;7.40
73937;BMP180;59249;59.736;30.568;2023-09-19T02:15:54;101091.00;;;7.50
73937;BMP180;59249;59.736;30.568;2023-09-19T02:18:27;101085.00;;;7.50
73937;BMP180;59249;59.736;30.568;2023-09-19T02:20:57;101093.00;;;7.50
73937;BMP180;59249;59.736;30.568;2023-09-19T02:23:26;101092.00;;;7.60
73937;BMP180;59249;59.736;30.568;2023-09-19T02:25:57;101087.00;;;7.70
73937;BMP180;59249;59.736;30.568;2023-09-19T02:28:27;101084.00;;;7.80
73937;BMP180;59249;59.736;30.568;2023-09-19T02:30:59;101076.00;;;7.80
73937;BMP180;59249;59.736;30.568;2023-09-19T02:33:30;101080.00;;;7.90
73937;BMP180;59249;59.736;30.568;2023-09-19T02:36:00;101081.00;;;7.90
73937;BMP180;59249;59.736;30.568;2023-09-19T02:38:30;101051.00;;;7.90
73937;BMP180;59249;59.736;30.568;2023-09-19T02:40:59;101039.00;;;7.90
73937;BMP180;59249;59.736;30.568;2023-09-19T02:43:29;101046.00;;;7.90
73937;BMP180;59249;59.736;30.568;2023-09-19T02:45:57;101031.00;;;7.80
73937;BMP180;59249;59.736;30.568;2023-09-19T02:48:27;101033.00;;;7.90
73937;BMP180;59249;59.736;30.568;2023-09-19T02:51:00;101038.00;;;7.80
73937;BMP180;59249;59.736;30.568;2023-09-19T02:53:30;101031.00;;;7.80
73937;BMP180;59249;59.736;30.568;2023-09-19T02:55:59;101030.00;;;7.80
73937;BMP180;59249;59.736;30.568;2023-09-19T02:58:28;101030.00;;;7.90
73937;BMP180;59249;59.736;30.568;2023-09-19T03:00:57;101018.00;;;7.90
73937;BMP180;59249;59.736;30.568;2023-09-19T03:03:27;101026.00;;;8.00
73937;BMP180;59249;59.736;30.568;2023-09-19T03:05:57;101032.00;;;8.00
73937;BMP180;59249;59.736;30.568;2023-09-19T03:08:26;101021.00;;;8.00
73937;BMP180;59249;59.736;30.568;2023-09-19T03:10:55;101018.00;;;8.00
73937;BMP180;59249;59.736;30.568;2023-09-19T03:13:24;101004.00;;;8.00
73937;BMP180;59249;59.736;30.568;2023-09-19T03:15:54;100998.00;;;8.00
73937;BMP180;59249;59.736;30.568;2023-09-19T03:18:27;100990.00;;;8.10
73937;BMP180;59249;59.736;30.568;2023-09-19T03:20:57;100973.00;;;8.10
73937;BMP180;59249;59.736;30.568;2023-09-19T03:23:29;100977.00;;;8.10
73937;BMP180;59249;59.736;30.568;2023-09-19T03:26:00;100979.00;;;8.10
73937;BMP180;59249;59.736;30.568;2023-09-19T03:28:29;100963.00;;;8.20
73937;BMP180;59249;59.736;30.568;2023-09-19T03:31:02;100960.00;;;8.20
73937;BMP180;59249;59.736;30.568;2023-09-19T03:33:35;100963.00;;;8.20
73937;BMP180;59249;59.736;30.568;2023-09-19T03:36:06;100951.00;;;8.20
73937;BMP180;59249;59.736;30.568;2023-09-19T03:38:36;100947.00;;;8.30
73937;BMP180;59249;59.736;30.568;2023-09-19T03:41:06;100944.00;;;8.30
73937;BMP180;59249;59.736;30.568;2023-09-19T03:43:36;100942.00;;;8.40
73937;BMP180;59249;59.736;30.568;2023-09-19T03:46:05;100933.00;;;8.40
73937;BMP180;59249;59.736;30.568;2023-09-19T03:48:38;100926.00;;;8.40
73937;BMP180;59249;59.736;30.568;2023-09-19T03:51:09;100925.00;;;8.40
73937;BMP180;59249;59.736;30.568;2023-09-19T03:53:38;100919.00;;;8.40
73937;BMP180;59249;59.736;30.568;2023-09-19T03:56:09;100924.00;;;8.50
73937;BMP180;59249;59.736;30.568;2023-09-19T03:58:38;100912.00;;;8.50
73937;BMP180;59249;59.736;30.568;2023-09-19T04:01:07;100913.00;;;8.50
73937;BMP180;59249;59.736;30.568;2023-09-19T04:03:36;100913.00;;;8.60
73937;BMP180;59249;59.736;30.568;2023-09-19T04:06:20;100916.00;;;8.70
73937;BMP180;59249;59.736;30.568;2023-09-19T04:08:49;100910.00;;;8.80
73937;BMP180;59249;59.736;30.568;2023-09-19T04:11:18;100892.00;;;8.80
73937;BMP180;59249;59.736;30.568;2023-09-19T04:13:48;100894.00;;;8.70
73937;BMP180;59249;59.736;30.568;2023-09-19T04:16:17;100888.00;;;8.80
73937;BMP180;59249;59.736;30.568;2023-09-19T04:18:48;100881.00;;;8.80
73937;BMP180;59249;59.736;30.568;2023-09-19T04:21:22;100873.00;;;8.90
73937;BMP180;59249;59.736;30.568;2023-09-19T04:23:51;100861.00;;;8.90
73937;BMP180;59249;59.736;30.568;2023-09-19T04:26:22;100849.00;;;9.00
73937;BMP180;59249;59.736;30.568;2023-09-19T04:28:55;100838.00;;;8.90
73937;BMP180;59249;59.736;30.568;2023-09-19T04:31:25;100838.00;;;8.90
73937;BMP180;59249;59.736;30.568;2023-09-19T04:33:54;100843.00;;;8.80
73937;BMP180;59249;59.736;30.568;2023-09-19T04:36:25;100833.00;;;8.90
73937;BMP180;59249;59.736;30.568;2023-09-19T04:39:03;100828.00;;;8.80
73937;BMP180;59249;59.736;30.568;2023-09-19T04:41:34;100830.00;;;8.80
73937;BMP180;59249;59.736;30.568;2023-09-19T04:44:07;100828.00;;;8.90
73937;BMP180;59249;59.736;30.568;2023-09-19T04:46:42;100824.00;;;8.90
73937;BMP180;59249;59.736;30.568;2023-09-19T04:49:12;100822.00;;;8.90
73937;BMP180;59249;59.736;30.568;2023-09-19T04:51:48;100826.00;;;9.00
73937;BMP180;59249;59.736;30.568;2023-09-19T04:54:17;100826.00;;;9.00
73937;BMP180;59249;59.736;30.568;2023-09-19T04:56:47;100824.00;;;9.20
73937;BMP180;59249;59.736;30.568;2023-09-19T04:59:22;100819.00;;;9.20
73937;BMP180;59249;59.736;30.568;2023-09-19T05:01:52;100822.00;;;9.20
73937;BMP180;59249;59.736;30.568;2023-09-19T05:04:21;100818.00;;;9.30
73937;BMP180;59249;59.736;30.568;2023-09-19T05:07:08;100816.00;;;9.40
73937;BMP180;59249;59.736;30.568;2023-09-19T05:09:48;100805.00;;;9.50
73937;BMP180;59249;59.736;30.568;2023-09-19T05:12:17;100809.00;;;9.50
73937;BMP180;59249;59.736;30.568;2023-09-19T05:14:47;100809.00;;;9.60
73937;BMP180;59249;59.736;30.568;2023-09-19T05:17:19;100797.00;;;9.50
73937;BMP180;59249;59.736;30.568;2023-09-19T05:19:49;100796.00;;;9.50
73937;BMP180;59249;59.736;30.568;2023-09-19T05:22:19;100793.00;;;9.70
73937;BMP180;59249;59.736;30.568;2023-09-19T05:24:50;100789.00;;;9.70
73937;BMP180;59249;59.736;30.568;2023-09-19T05:27:21;100800.00;;;9.80
73937;BMP180;59249;59.736;30.568;2023-09-19T05:29:54;100792.00;;;9.80
73937;BMP180;59249;59.736;30.568;2023-09-19T05:32:23;100787.00;;;9.80
73937;BMP180;59249;59.736;30.568;2023-09-19T05:34:51;100781.00;;;9.70
73937;BMP180;59249;59.736;30.568;2023-09-19T05:37:25;100770.00;;;9.60
73937;BMP180;59249;59.736;30.568;2023-09-19T05:39:54;100755.00;;;9.70
73937;BMP180;59249;59.736;30.568;2023-09-19T05:42:23;100757.00;;;9.70
73937;BMP180;59249;59.736;30.568;2023-09-19T05:44:58;100750.00;;;9.80
73937;BMP180;59249;59.736;30.568;2023-09-19T05:47:33;100752.00;;;9.80
73937;BMP180;59249;59.736;30.568;2023-09-19T05:50:03;100738.00;;;9.90
73937;BMP180;59249;59.736;30.568;2023-09-19T05:52:37;100733.00;;;9.90
73937;BMP180;59249;59.736;30.568;2023-09-19T05:55:15;100724.00;;;10.00
73937;BMP180;59249;59.736;30.568;2023-09-19T05:57:50;100727.00;;;10.00
73937;BMP180;59249;59.736;30.568;2023-09-19T06:00:21;100718.00;;;10.10
73937;BMP180;59249;59.736;30.568;2023-09-19T06:02:51;100727.00;;;10.20
73937;BMP180;59249;59.736;30.568;2023-09-19T06:05:22;100708.00;;;10.30
73937;BMP180;59249;59.736;30.568;2023-09-19T06:07:56;100721.00;;;10.50
73937;BMP180;59249;59.736;30.568;2023-09-19T06:10:30;100721.00;;;10.60
73937;BMP180;59249;59.736;30.568;2023-09-19T06:13:30;100719.00;;;10.60
73937;BMP180;59249;59.736;30.568;2023-09-19T06:16:04;100712.00;;;10.90
73937;BMP180;59249;59.736;30.568;2023-09-19T06:18:37;100714.00;;;10.90
73937;BMP180;59249;59.736;30.568;2023-09-19T06:21:13;100706.00;;;11.10
73937;BMP180;59249;59.736;30.568;2023-09-19T06:23:52;100705.00;;;11.10
73937;BMP180;59249;59.736;30.568;2023-09-19T06:26:23;100696.00;;;11.20
73937;BMP180;59249;59.736;30.568;2023-09-19T06:28:56;100693.00;;;11.20
73937;BMP180;59249;59.736;30.568;2023-09-19T06:31:28;100682.00;;;11.30
73937;BMP180;59249;59.736;30.568;2023-09-19T06:33:58;100668.00;;;11.30
73937;BMP180;59249;59.736;30.568;2023-09-19T06:36:29;100670.00;;;11.50
73937;BMP180;59249;59.736;30.568;2023-09-19T06:39:07;100667.00;;;11.50
73937;BMP180;59249;59.736;30.568;2023-09-19T06:41:38;100659.00;;;11.70
73937;BMP180;59249;59.736;30.568;2023-09-19T06:44:16;100648.00;;;11.70
73937;BMP180;59249;59.736;30.568;2023-09-19T06:46:47;100657.00;;;11.90
73937;BMP180;59249;59.736;30.568;2023-09-19T06:49:21;100663.00;;;12.00
73937;BMP180;59249;59.736;30.568;2023-09-19T06:51:56;100651.00;;;12.00
73937;BMP180;59249;59.736;30.568;2023-09-19T06:54:27;100657.00;;;12.20
73937;BMP180;59249;59.736;30.568;2023-09-19T06:57:04;100650.00;;;12.20
73937;BMP180;59249;59.736;30.568;2023-09-19T06:59:38;100641.00;;;12.40
73937;BMP180;59249;59.736;30.568;2023-09-19T07:02:15;100641.00;;;12.40
73937;BMP180;59249;59.736;30.568;2023-09-19T07:04:56;100638.00;;;12.60
73937;BMP180;59249;59.736;30.568;2023-09-19T07:07:30;100641.00;;;12.70
73937;BMP180;59249;59.736;30.568;2023-09-19T07:10:05;100635.00;;;12.80
73937;BMP180;59249;59.736;30.568;2023-09-19T07:12:38;100638.00;;;12.80
73937;BMP180;59249;59.736;30.568;2023-09-19T07:15:13;100634.00;;;12.90
73937;BMP180;59249;59.736;30.568;2023-09-19T07:17:43;100633.00;;;13.00
73937;BMP180;59249;59.736;30.568;2023-09-19T07:20:18;100628.00;;;13.10
73937;BMP180;59249;59.736;30.568;2023-09-19T07:22:48;100627.00;;;13.30
73937;BMP180;59249;59.736;30.568;2023-09-19T07:25:21;100627.00;;;13.40
73937;BMP180;59249;59.736;30.568;2023-09-19T07:27:50;100622.00;;;13.60
73937;BMP180;59249;59.736;30.568;2023-09-19T07:30:24;100615.00;;;13.70
73937;BMP180;59249;59.736;30.568;2023-09-19T07:32:54;100620.00;;;13.80
73937;BMP180;59249;59.736;30.568;2023-09-19T07:35:29;100621.00;;;13.90
73937;BMP180;59249;59.736;30.568;2023-09-19T07:38:00;100616.00;;;14.10
73937;BMP180;59249;59.736;30.568;2023-09-19T07:40:45;100607.00;;;14.30
73937;BMP180;59249;59.736;30.568;2023-09-19T07:43:40;100608.00;;;14.50
73937;BMP180;59249;59.736;30.568;2023-09-19T07:46:10;100607.00;;;14.70
73937;BMP180;59249;59.736;30.568;2023-09-19T07:48:41;100592.00;;;14.90
73937;BMP180;59249;59.736;30.568;2023-09-19T07:51:16;100592.00;;;15.20
73937;BMP180;59249;59.736;30.568;2023-09-19T07:53:46;100595.00;;;15.40
73937;BMP180;59249;59.736;30.568;2023-09-19T07:56:17;100590.00;;;15.70
73937;BMP180;59249;59.736;30.568;2023-09-19T07:58:48;100588.00;;;15.80
73937;BMP180;59249;59.736;30.568;2023-09-19T08:01:32;100576.00;;;16.00
73937;BMP180;59249;59.736;30.568;2023-09-19T08:04:24;100570.00;;;16.10
73937;BMP180;59249;59.736;30.568;2023-09-19T08:06:54;100556.00;;;16.30
73937;BMP180;59249;59.736;30.568;2023-09-19T08:09:23;100553.00;;;16.40
73937;BMP180;59249;59.736;30.568;2023-09-19T08:11:55;100551.00;;;16.40
73937;BMP180;59249;59.736;30.568;2023-09-19T08:14:24;100553.00;;;16.60
73937;BMP180;59249;59.736;30.568;2023-09-19T08:16:57;100553.00;;;16.80
73937;BMP180;59249;59.736;30.568;2023-09-19T08:19:30;100552.00;;;16.90
73937;BMP180;59249;59.736;30.568;2023-09-19T08:22:03;100546.00;;;17.10
73937;BMP180;59249;59.736;30.568;2023-09-19T08:24:36;100543.00;;;17.20
73937;BMP180;59249;59.736;30.568;2023-09-19T08:27:07;100541.00;;;17.40
73937;BMP180;59249;59.736;30.568;2023-09-19T08:29:38;100523.00;;;17.70
73937;BMP180;59249;59.736;30.568;2023-09-19T08:32:08;100528.00;;;17.80
73937;BMP180;59249;59.736;30.568;2023-09-19T08:34:37;100516.00;;;18.00
73937;BMP180;59249;59.736;30.568;2023-09-19T08:37:13;100521.00;;;18.00
73937;BMP180;59249;59.736;30.568;2023-09-19T08:39:44;100519.00;;;18.10
73937;BMP180;59249;59.736;30.568;2023-09-19T08:42:15;100515.00;;;18.20
73937;BMP180;59249;59.736;30.568;2023-09-19T08:44:47;100515.00;;;18.20
73937;BMP180;59249;59.736;30.568;2023-09-19T08:47:41;100520.00;;;18.10
73937;BMP180;59249;59.736;30.568;2023-09-19T08:50:19;100509.00;;;18.10
73937;BMP180;59249;59.736;30.568;2023-09-19T08:52:56;100504.00;;;17.90
73937;BMP180;59249;59.736;30.568;2023-09-19T08:55:39;100510.00;;;17.80
73937;BMP180;59249;59.736;30.568;2023-09-19T08:58:30;100511.00;;;17.80
73937;BMP180;59249;59.736;30.568;2023-09-19T09:01:09;100502.00;;;17.90
73937;BMP180;59249;59.736;30.568;2023-09-19T09:03:40;100492.00;;;17.90
73937;BMP180;59249;59.736;30.568;2023-09-19T09:06:19;100493.00;;;17.90
73937;BMP180;59249;59.736;30.568;2023-09-19T09:08:55;100490.00;;;17.90
73937;BMP180;59249;59.736;30.568;2023-09-19T09:11:27;100474.00;;;18.00
73937;BMP180;59249;59.736;30.568;2023-09-19T09:14:00;100465.00;;;18.00
73937;BMP180;59249;59.736;30.568;2023-09-19T09:16:29;100462.00;;;18.10
73937;BMP180;59249;59.736;30.568;2023-09-19T09:19:02;100459.00;;;18.20
73937;BMP180;59249;59.736;30.568;2023-09-19T09:21:31;100460.00;;;18.20
73937;BMP180;59249;59.736;30.568;2023-09-19T09:24:27;100464.00;;;18.30
73937;BMP180;59249;59.736;30.568;2023-09-19T09:26:57;100454.00;;;18.40
73937;BMP180;59249;59.736;30.568;2023-09-19T09:29:46;100452.00;;;18.40
73937;BMP180;59249;59.736;30.568;2023-09-19T09:32:31;100446.00;;;18.50
73937;BMP180;59249;59.736;30.568;2023-09-19T09:35:16;100440.00;;;18.60
73937;BMP180;59249;59.736;30.568;2023-09-19T09:37:59;100439.00;;;18.60
73937;BMP180;59249;59.736;30.568;2023-09-19T09:40:46;100443.00;;;18.60
73937;BMP180;59249;59.736;30.568;2023-09-19T09:43:39;100437.00;;;18.60
73937;BMP180;59249;59.736;30.568;2023-09-19T09:46:16;100438.00;;;18.70
73937;BMP180;59249;59.736;30.568;2023-09-19T09:49:06;100430.00;;;18.90
73937;BMP180;59249;59.736;30.568;2023-09-19T09:51:48;100428.00;;;19.00
73937;BMP180;59249;59.736;30.568;2023-09-19T09:55:02;100419.00;;;19.10
73937;BMP180;59249;59.736;30.568;2023-09-19T10:01:05;100422.00;;;19.20
73937;BMP180;59249;59.736;30.568;2023-09-19T10:03:57;100412.00;;;19.20
73937;BMP180;59249;59.736;30.568;2023-09-19T10:06:40;100402.00;;;19.30
73937;BMP180;59249;59.736;30.568;2023-09-19T10:09:14;100407.00;;;19.50
73937;BMP180;59249;59.736;30.568;2023-09-19T10:12:02;100396.00;;;19.60
73937;BMP180;59249;59.736;30.568;2023-09-19T10:14:38;100394.00;;;19.70
73937;BMP180;59249;59.736;30.568;2023-09-19T10:17:12;100388.00;;;19.70
73937;BMP180;59249;59.736;30.568;2023-09-19T10:19:55;100390.00;;;19.70
73937;BMP180;59249;59.736;30.568;2023-09-19T10:22:26;100382.00;;;19.90
73937;BMP180;59249;59.736;30.568;2023-09-19T10:25:00;100376.00;;;20.00
73937;BMP180;59249;59.736;30.568;2023-09-19T10:27:36;100370.00;;;20.10
73937;BMP180;59249;59.736;30.568;2023-09-19T10:30:08;100364.00;;;20.20
73937;BMP180;59249;59.736;30.568;2023-09-19T10:32:40;100362.00;;;20.30
73937;BMP180;59249;59.736;30.568;2023-09-19T10:35:32;100362.00;;;20.40
73937;BMP180;59249;59.736;30.568;2023-09-19T10:38:04;100351.00;;;20.30
73937;BMP180;59249;59.736;30.568;2023-09-19T10:40:37;100346.00;;;20.40
73937;BMP180;59249;59.736;30.568;2023-09-19T10:43:13;100348.00;;;20.50
73937;BMP180;59249;59.736;30.568;2023-09-19T10:45:46;100338.00;;;20.50
73937;BMP180;59249;59.736;30.568;2023-09-19T10:48:17;100338.00;;;20.50
73937;BMP180;59249;59.736;30.568;2023-09-19T10:50:58;100332.00;;;20.50
73937;BMP180;59249;59.736;30.568;2023-09-19T10:53:42;100322.00;;;20.70
73937;BMP180;59249;59.736;30.568;2023-09-19T10:56:23;100321.00;;;20.70
73937;BMP180;59249;59.736;30.568;2023-09-19T10:59:07;100323.00;;;20.80
73937;BMP180;59249;59.736;30.568;2023-09-19T11:01:42;100312.00;;;21.00
73937;BMP180;59249;59.736;30.568;2023-09-19T11:04:26;100305.00;;;21.20
73937;BMP180;59249;59.736;30.568;2023-09-19T11:07:03;100314.00;;;21.40
73937;BMP180;59249;59.736;30.568;2023-09-19T11:09:44;100314.00;;;21.50
73937;BMP180;59249;59.736;30.568;2023-09-19T11:12:48;100315.00;;;21.50
73937;BMP180;59249;59.736;30.568;2023-09-19T11:18:54;100298.00;;;21.70
73937;BMP180;59249;59.736;30.568;2023-09-19T11:21:56;100299.00;;;21.60
73937;BMP180;59249;59.736;30.568;2023-09-19T11:24:33;100298.00;;;21.80
73937;BMP180;59249;59.736;30.568;2023-09-19T11:27:14;100289.00;;;21.80
73937;BMP180;59249;59.736;30.568;2023-09-19T11:29:46;100284.00;;;21.80
73937;BMP180;59249;59.736;30.568;2023-09-19T11:32:16;100283.00;;;21.90
73937;BMP180;59249;59.736;30.568;2023-09-19T11:35:10;100283.00;;;22.00
73937;BMP180;59249;59.736;30.568;2023-09-19T11:37:59;100274.00;;;21.90
73937;BMP180;59249;59.736;30.568;2023-09-19T11:40:44;100277.00;;;21.80
73937;BMP180;59249;59.736;30.568;2023-09-19T11:43:31;100274.00;;;22.00
73937;BMP180;59249;59.736;30.568;2023-09-19T11:46:06;100260.00;;;22.10
73937;BMP180;59249;59.736;30.568;2023-09-19T11:48:38;100265.00;;;22.10
73937;BMP180;59249;59.736;30.568;2023-09-19T11:51:13;100272.00;;;22.20
73937;BMP180;59249;59.736;30.568;2023-09-19T11:53:47;100269.00;;;22.30
73937;BMP180;59249;59.736;30.568;2023-09-19T11:56:20;100271.00;;;22.50
73937;BMP180;59249;59.736;30.568;2023-09-19T11:58:52;100265.00;;;22.50
73937;BMP180;59249;59.736;30.568;2023-09-19T12:01:24;100262.00;;;22.50
73937;BMP180;59249;59.736;30.568;2023-09-19T12:03:58;100253.00;;;22.40
73937;BMP180;59249;59.736;30.568;2023-09-19T12:06:32;100257.00;;;22.40
73937;BMP180;59249;59.736;30.568;2023-09-19T12:09:12;100254.00;;;22.30
73937;BMP180;59249;59.736;30.568;2023-09-19T12:11:45;100253.00;;;22.40
73937;BMP180;59249;59.736;30.568;2023-09-19T12:14:22;100254.00;;;22.40
73937;BMP180;59249;59.736;30.568;2023-09-19T12:16:54;100256.00;;;22.40
73937;BMP180;59249;59.736;30.568;2023-09-19T12:19:23;100253.00;;;22.40
73937;BMP180;59249;59.736;30.568;2023-09-19T12:21:54;100253.00;;;22.40
73937;BMP180;59249;59.736;30.568;2023-09-19T12:24:26;100252.00;;;22.60
73937;BMP180;59249;59.736;30.568;2023-09-19T12:27:03;100239.00;;;22.60
73937;BMP180;59249;59.736;30.568;2023-09-19T12:29:42;100246.00;;;22.60
73937;BMP180;59249;59.736;30.568;2023-09-19T12:32:12;100246.00;;;22.70
73937;BMP180;59249;59.736;30.568;2023-09-19T12:34:51;100235.00;;;22.60
73937;BMP180;59249;59.736;30.568;2023-09-19T12:37:24;100237.00;;;22.60
73937;BMP180;59249;59.736;30.568;2023-09-19T12:40:04;100229.00;;;22.50
73937;BMP180;59249;59.736;30.568;2023-09-19T12:42:47;100228.00;;;22.40
73937;BMP180;59249;59.736;30.568;2023-09-19T12:45:26;100229.00;;;22.40
73937;BMP180;59249;59.736;30.568;2023-09-19T12:48:20;100233.00;;;22.20
73937;BMP180;59249;59.736;30.568;2023-09-19T12:51:06;100214.00;;;22.20
73937;BMP180;59249;59.736;30.568;2023-09-19T12:53:41;100217.00;;;22.10
73937;BMP180;59249;59.736;30.568;2023-09-19T12:56:20;100208.00;;;22.20
73937;BMP180;59249;59.736;30.568;2023-09-19T12:58:59;100209.00;;;22.20
73937;BMP180;59249;59.736;30.568;2023-09-19T13:01:35;100201.00;;;22.20
73937;BMP180;59249;59.736;30.568;2023-09-19T13:04:13;100190.00;;;22.50
73937;BMP180;59249;59.736;30.568;2023-09-19T13:06:52;100185.00;;;22.70
73937;BMP180;59249;59.736;30.568;2023-09-19T13:09:34;100180.00;;;22.80
73937;BMP180;59249;59.736;30.568;2023-09-19T13:12:37;100181.00;;;23.00
73937;BMP180;59249;59.736;30.568;2023-09-19T13:15:16;100184.00;;;23.10
73937;BMP180;59249;59.736;30.568;2023-09-19T13:18:17;100175.00;;;23.20
73937;BMP180;59249;59.736;30.568;2023-09-19T13:21:06;100169.00;;;23.20
73937;BMP180;59249;59.736;30.568;2023-09-19T13:23:37;100158.00;;;23.20
73937;BMP180;59249;59.736;30.568;2023-09-19T13:26:11;100162.00;;;23.10
73937;BMP180;59249;59.736;30.568;2023-09-19T13:28:42;100158.00;;;23.10
73937;BMP180;59249;59.736;30.568;2023-09-19T13:31:21;100154.00;;;23.00
73937;BMP180;59249;59.736;30.568;2023-09-19T13:33:52;100151.00;;;23.00
73937;BMP180;59249;59.736;30.568;2023-09-19T13:36:21;100146.00;;;23.20
73937;BMP180;59249;59.736;30.568;2023-09-19T13:39:06;100142.00;;;23.10
73937;BMP180;59249;59.736;30.568;2023-09-19T13:41:41;100141.00;;;23.10
73937;BMP180;59249;59.736;30.568;2023-09-19T13:44:10;100136.00;;;23.20
73937;BMP180;59249;59.736;30.568;2023-09-19T13:46:46;100139.00;;;23.30
73937;BMP180;59249;59.736;30.568;2023-09-19T13:49:21;100133.00;;;23.20
73937;BMP180;59249;59.736;30.568;2023-09-19T13:51:55;100129.00;;;23.20
73937;BMP180;59249;59.736;30.568;2023-09-19T13:54:29;100126.00;;;23.10
73937;BMP180;59249;59.736;30.568;2023-09-19T13:57:11;100123.00;;;23.20
73937;BMP180;59249;59.736;30.568;2023-09-19T13:59:43;100109.00;;;23.10
73937;BMP180;59249;59.736;30.568;2023-09-19T14:02:13;100112.00;;;23.10
73937;BMP180;59249;59.736;30.568;2023-09-19T14:04:54;100110.00;;;23.00
73937;BMP180;59249;59.736;30.568;2023-09-19T14:07:30;100112.00;;;22.90
73937;BMP180;59249;59.736;30.568;2023-09-19T14:10:01;100109.00;;;22.90
73937;BMP180;59249;59.736;30.568;2023-09-19T14:12:45;100095.00;;;22.80
73937;BMP180;59249;59.736;30.568;2023-09-19T14:15:20;100097.00;;;22.80
73937;BMP180;59249;59.736;30.568;2023-09-19T14:18:03;100099.00;;;22.80
73937;BMP180;59249;59.736;30.568;2023-09-19T14:20:42;100093.00;;;22.70
73937;BMP180;59249;59.736;30.568;2023-09-19T14:23:21;100089.00;;;22.70
73937;BMP180;59249;59.736;30.568;2023-09-19T14:26:00;100092.00;;;22.70
73937;BMP180;59249;59.736;30.568;2023-09-19T14:28:50;100096.00;;;22.70
73937;BMP180;59249;59.736;30.568;2023-09-19T14:31:20;100087.00;;;22.70
73937;BMP180;59249;59.736;30.568;2023-09-19T14:33:58;100090.00;;;22.70
73937;BMP180;59249;59.736;30.568;2023-09-19T14:36:30;100082.00;;;22.70
73937;BMP180;59249;59.736;30.568;2023-09-19T14:39:04;100080.00;;;22.70
73937;BMP180;59249;59.736;30.568;2023-09-19T14:41:35;100080.00;;;22.70
73937;BMP180;59249;59.736;30.568;2023-09-19T14:44:07;100069.00;;;22.80